createdAt,value
2018-01-26T00:00:53.002Z,85.01
2018-01-26T00:01:52.957Z,85.20
2018-01-26T00:02:52.958Z,84.72
2018-01-26T00:03:52.946Z,84.72
2018-01-26T00:04:52.946Z,84.82
2018-01-26T00:05:52.981Z,84.72
2018-01-26T00:06:52.950Z,85.01
2018-01-26T00:07:52.949Z,84.53
2018-01-26T00:08:52.947Z,85.20
2018-01-26T00:09:52.934Z,85.49
2018-01-26T00:10:52.985Z,84.53
2018-01-26T00:11:52.946Z,84.44
2018-01-26T00:12:52.941Z,84.72
2018-01-26T00:13:52.933Z,84.63
2018-01-26T00:14:52.941Z,83.39
2018-01-26T00:15:52.972Z,84.06
2018-01-26T00:16:52.928Z,84.72
2018-01-26T00:17:52.932Z,84.53
2018-01-26T00:18:52.928Z,84.91
2018-01-26T00:19:52.930Z,84.53
2018-01-26T00:20:52.968Z,84.44
2018-01-26T00:21:52.918Z,83.82
2018-01-26T00:22:52.933Z,84.29
2018-01-26T00:23:53.386Z,84.20
2018-01-26T00:24:52.915Z,84.20
2018-01-26T00:25:52.959Z,84.39
2018-01-26T00:26:52.968Z,83.78
2018-01-26T00:27:52.922Z,84.10
2018-01-26T00:28:52.916Z,83.25
2018-01-26T00:29:52.913Z,83.82
2018-01-26T00:30:52.903Z,83.25
2018-01-26T00:31:52.956Z,83.25
2018-01-26T00:32:52.904Z,83.44
2018-01-26T00:33:52.912Z,83.34
2018-01-26T00:34:52.906Z,84.01
2018-01-26T00:35:52.895Z,84.48
2018-01-26T00:36:52.951Z,84.63
2018-01-26T00:37:52.903Z,84.53
2018-01-26T00:38:52.891Z,84.34
2018-01-26T00:39:52.895Z,84.63
2018-01-26T00:40:52.891Z,84.39
2018-01-26T00:41:52.890Z,83.68
2018-01-26T00:42:52.922Z,83.72
2018-01-26T00:43:52.883Z,83.91
2018-01-26T00:44:52.893Z,83.68
2018-01-26T00:45:53.450Z,83.53
2018-01-26T00:46:52.888Z,83.34
2018-01-26T00:47:52.890Z,83.53
2018-01-26T00:48:52.881Z,84.39
2018-01-26T00:49:52.873Z,83.53
2018-01-26T00:50:52.923Z,83.49
2018-01-26T00:51:53.643Z,83.34
2018-01-26T00:52:52.910Z,83.34
2018-01-26T00:53:52.867Z,83.91
2018-01-26T00:54:52.874Z,83.15
2018-01-26T00:55:52.872Z,82.29
2018-01-26T00:56:52.918Z,82.29
2018-01-26T00:57:52.870Z,83.25
2018-01-26T00:58:52.863Z,81.25
2018-01-26T00:59:52.869Z,81.35
2018-01-26T01:00:52.860Z,82.49
2018-01-26T01:01:52.910Z,81.73
2018-01-26T01:02:52.852Z,81.73
2018-01-26T01:03:52.852Z,81.54
2018-01-26T01:04:52.860Z,81.54
2018-01-26T01:05:52.848Z,80.58
2018-01-26T01:06:52.898Z,79.83
2018-01-26T01:07:52.888Z,79.44
2018-01-26T01:08:52.844Z,78.82
2018-01-26T01:09:52.855Z,78.91
2018-01-26T01:10:52.898Z,78.91
2018-01-26T01:11:52.841Z,78.25
2018-01-26T01:12:52.892Z,78.16
2018-01-26T01:13:52.844Z,77.97
2018-01-26T01:14:52.837Z,78.63
2018-01-26T01:15:52.843Z,78.34
2018-01-26T01:16:52.842Z,78.34
2018-01-26T01:17:52.871Z,78.16
2018-01-26T01:18:52.828Z,78.16
2018-01-26T01:19:52.839Z,78.72
2018-01-26T01:20:52.826Z,79.06
2018-01-26T01:21:52.823Z,79.01
2018-01-26T01:22:52.866Z,79.83
2018-01-26T01:23:52.831Z,79.35
2018-01-26T01:24:52.832Z,79.25
2018-01-26T01:25:52.826Z,79.06
2018-01-26T01:26:52.818Z,79.92
2018-01-26T01:27:52.871Z,80.02
2018-01-26T01:28:52.824Z,79.73
2018-01-26T01:29:52.813Z,79.44
2018-01-26T01:30:52.824Z,79.92
2018-01-26T01:31:52.823Z,79.92
2018-01-26T01:32:52.862Z,79.35
2018-01-26T01:33:52.847Z,79.06
2018-01-26T01:34:52.807Z,79.35
2018-01-26T01:35:52.804Z,78.88
2018-01-26T01:36:52.812Z,78.97
2018-01-26T01:37:52.815Z,78.50
2018-01-26T01:38:52.844Z,78.59
2018-01-26T01:39:52.798Z,78.69
2018-01-26T01:40:52.802Z,79.01
2018-01-26T01:41:52.813Z,79.16
2018-01-26T01:42:52.840Z,78.02
2018-01-26T01:43:52.803Z,78.59
2018-01-26T01:44:52.794Z,78.53
2018-01-26T01:45:52.799Z,78.25
2018-01-26T01:46:52.807Z,78.16
2018-01-26T01:47:52.841Z,78.34
2018-01-26T01:48:52.801Z,77.87
2018-01-26T01:49:52.797Z,77.68
2018-01-26T01:50:52.851Z,77.49
2018-01-26T01:51:52.791Z,78.06
2018-01-26T01:52:52.829Z,78.34
2018-01-26T01:53:52.829Z,78.53
2018-01-26T01:54:52.779Z,78.11
2018-01-26T01:55:52.780Z,78.21
2018-01-26T01:56:52.786Z,78.30
2018-01-26T01:57:52.821Z,77.68
2018-01-26T01:58:52.831Z,78.11
2018-01-26T01:59:52.775Z,78.25
2018-01-26T02:00:52.777Z,78.16
2018-01-26T02:01:53.245Z,77.58
2018-01-26T02:02:52.819Z,77.39
2018-01-26T02:03:52.821Z,78.21
2018-01-26T02:04:52.774Z,78.02
2018-01-26T02:05:52.763Z,77.92
2018-01-26T02:06:52.771Z,78.50
2018-01-26T02:07:52.760Z,78.30
2018-01-26T02:08:52.810Z,78.50
2018-01-26T02:09:52.766Z,78.25
2018-01-26T02:10:52.768Z,77.58
2018-01-26T02:11:52.755Z,78.06
2018-01-26T02:12:52.804Z,77.97
2018-01-26T02:13:52.761Z,77.87
2018-01-26T02:14:52.760Z,78.44
2018-01-26T02:15:52.759Z,77.77
2018-01-26T02:16:52.747Z,78.11
2018-01-26T02:17:52.784Z,78.02
2018-01-26T02:18:52.754Z,78.30
2018-01-26T02:19:52.752Z,78.02
2018-01-26T02:20:52.753Z,78.06
2018-01-26T02:21:52.749Z,77.87
2018-01-26T02:22:52.789Z,77.97
2018-01-26T02:23:52.765Z,77.83
2018-01-26T02:24:52.764Z,77.68
2018-01-26T02:25:52.759Z,77.68
2018-01-26T02:26:52.762Z,78.02
2018-01-26T02:27:52.817Z,78.53
2018-01-26T02:28:52.757Z,77.73
2018-01-26T02:29:52.756Z,77.58
2018-01-26T02:30:52.756Z,77.77
2018-01-26T02:31:52.753Z,77.45
2018-01-26T02:32:52.799Z,78.11
2018-01-26T02:33:52.794Z,78.53
2018-01-26T02:34:52.748Z,77.87
2018-01-26T02:35:52.754Z,77.64
2018-01-26T02:36:52.751Z,78.30
2018-01-26T02:37:52.742Z,78.30
2018-01-26T02:38:52.792Z,78.21
2018-01-26T02:39:52.750Z,78.78
2018-01-26T02:40:52.742Z,78.50
2018-01-26T02:41:52.739Z,78.02
2018-01-26T02:42:52.736Z,78.40
2018-01-26T02:43:52.778Z,78.50
2018-01-26T02:44:52.736Z,78.11
2018-01-26T02:45:52.741Z,78.69
2018-01-26T02:46:52.735Z,78.53
2018-01-26T02:47:52.731Z,77.97
2018-01-26T02:48:52.780Z,78.63
2018-01-26T02:49:52.731Z,78.44
2018-01-26T02:50:52.726Z,78.63
2018-01-26T02:51:52.725Z,78.34
2018-01-26T02:52:52.724Z,78.53
2018-01-26T02:53:52.720Z,78.53
2018-01-26T02:54:52.783Z,78.25
2018-01-26T02:55:52.738Z,78.34
2018-01-26T02:56:52.718Z,79.11
2018-01-26T02:57:52.754Z,78.72
2018-01-26T02:58:52.717Z,78.63
2018-01-26T02:59:52.718Z,79.01
2018-01-26T03:00:52.754Z,78.91
2018-01-26T03:01:52.710Z,79.83
2018-01-26T03:02:52.716Z,80.02
2018-01-26T03:03:52.708Z,79.92
2018-01-26T03:04:52.706Z,79.73
2018-01-26T03:05:52.755Z,79.77
2018-01-26T03:06:52.703Z,80.77
2018-01-26T03:07:52.706Z,81.16
2018-01-26T03:08:52.703Z,80.68
2018-01-26T03:09:52.697Z,81.25
2018-01-26T03:10:52.698Z,81.06
2018-01-26T03:11:52.742Z,81.73
2018-01-26T03:12:52.695Z,82.29
2018-01-26T03:13:52.695Z,83.34
2018-01-26T03:14:52.696Z,83.44
2018-01-26T03:15:52.692Z,83.72
2018-01-26T03:16:52.748Z,84.39
2018-01-26T03:17:52.729Z,83.97
2018-01-26T03:18:52.690Z,84.53
2018-01-26T03:19:52.687Z,84.72
2018-01-26T03:20:52.687Z,84.72
2018-01-26T03:21:52.685Z,84.53
2018-01-26T03:22:52.726Z,84.01
2018-01-26T03:23:52.681Z,84.10
2018-01-26T03:24:52.682Z,84.10
2018-01-26T03:25:52.677Z,83.72
2018-01-26T03:26:52.677Z,83.34
2018-01-26T03:27:52.734Z,83.25
2018-01-26T03:28:52.673Z,82.96
2018-01-26T03:29:52.670Z,83.15
2018-01-26T03:30:52.671Z,82.77
2018-01-26T03:31:52.671Z,83.34
2018-01-26T03:32:52.704Z,82.20
2018-01-26T03:33:52.708Z,82.10
2018-01-26T03:34:52.663Z,82.49
2018-01-26T03:35:52.663Z,82.10
2018-01-26T03:36:52.663Z,82.49
2018-01-26T03:37:52.661Z,82.68
2018-01-26T03:38:52.697Z,82.68
2018-01-26T03:39:52.663Z,82.58
2018-01-26T03:40:52.667Z,82.58
2018-01-26T03:41:52.653Z,82.39
2018-01-26T03:42:52.657Z,82.77
2018-01-26T03:43:52.710Z,82.68
2018-01-26T03:44:52.652Z,82.96
2018-01-26T03:45:52.651Z,83.44
2018-01-26T03:46:52.647Z,83.15
2018-01-26T03:47:52.647Z,83.15
2018-01-26T03:48:52.647Z,82.39
2018-01-26T03:49:52.681Z,83.82
2018-01-26T03:50:52.699Z,83.72
2018-01-26T03:51:52.643Z,83.72
2018-01-26T03:52:52.641Z,84.39
2018-01-26T03:53:52.639Z,83.72
2018-01-26T03:54:52.696Z,83.72
2018-01-26T03:55:52.638Z,82.87
2018-01-26T03:56:52.639Z,83.72
2018-01-26T03:57:52.691Z,83.34
2018-01-26T03:58:52.635Z,83.15
2018-01-26T03:59:52.636Z,83.53
2018-01-26T04:00:52.636Z,83.44
2018-01-26T04:01:52.631Z,83.62
2018-01-26T04:02:52.672Z,83.44
2018-01-26T04:03:52.625Z,83.91
2018-01-26T04:04:52.627Z,83.34
2018-01-26T04:05:52.679Z,83.91
2018-01-26T04:06:52.624Z,83.72
2018-01-26T04:07:52.626Z,83.25
2018-01-26T04:08:52.620Z,84.01
2018-01-26T04:09:52.622Z,83.82
2018-01-26T04:10:52.631Z,83.62
2018-01-26T04:11:52.652Z,84.58
2018-01-26T04:12:52.617Z,84.39
2018-01-26T04:13:52.616Z,84.77
2018-01-26T04:14:52.613Z,84.48
2018-01-26T04:15:52.611Z,84.95
2018-01-26T04:16:52.650Z,84.77
2018-01-26T04:17:52.609Z,85.34
2018-01-26T04:18:52.611Z,84.77
2018-01-26T04:19:52.607Z,84.95
2018-01-26T04:20:52.874Z,85.53
2018-01-26T04:21:52.661Z,85.53
2018-01-26T04:22:52.910Z,86.00
2018-01-26T04:23:52.606Z,86.34
2018-01-26T04:24:52.639Z,87.38
2018-01-26T04:25:52.598Z,86.91
2018-01-26T04:26:52.601Z,87.01
2018-01-26T04:27:52.642Z,86.91
2018-01-26T04:28:53.470Z,86.82
2018-01-26T04:29:52.595Z,87.01
2018-01-26T04:30:52.589Z,87.38
2018-01-26T04:31:52.589Z,87.01
2018-01-26T04:32:52.626Z,86.63
2018-01-26T04:33:52.587Z,86.91
2018-01-26T04:34:52.585Z,86.53
2018-01-26T04:35:52.587Z,86.24
2018-01-26T04:36:52.587Z,86.53
2018-01-26T04:37:52.639Z,86.53
2018-01-26T04:38:52.580Z,86.53
2018-01-26T04:39:52.824Z,87.19
2018-01-26T04:40:52.577Z,87.19
2018-01-26T04:41:52.574Z,86.63
2018-01-26T04:42:52.627Z,86.91
2018-01-26T04:43:52.931Z,86.91
2018-01-26T04:44:52.572Z,87.86
2018-01-26T04:45:52.568Z,86.82
2018-01-26T04:46:52.569Z,87.19
2018-01-26T04:47:52.567Z,87.19
2018-01-26T04:48:52.605Z,86.24
2018-01-26T04:49:52.562Z,86.05
2018-01-26T04:50:52.667Z,86.34
2018-01-26T04:51:52.563Z,86.24
2018-01-26T04:52:52.557Z,85.53
2018-01-26T04:53:52.594Z,85.58
2018-01-26T04:54:52.552Z,85.68
2018-01-26T04:55:52.553Z,85.58
2018-01-26T04:56:52.552Z,85.91
2018-01-26T04:57:52.552Z,85.53
2018-01-26T04:58:52.596Z,85.62
2018-01-26T04:59:52.549Z,85.53
2018-01-26T05:00:52.547Z,86.00
2018-01-26T05:01:52.545Z,86.29
2018-01-26T05:02:52.542Z,85.72
2018-01-26T05:03:52.592Z,85.72
2018-01-26T05:04:52.540Z,86.19
2018-01-26T05:05:52.538Z,86.00
2018-01-26T05:06:52.535Z,86.47
2018-01-26T05:07:52.536Z,86.67
2018-01-26T05:08:52.535Z,86.38
2018-01-26T05:09:52.576Z,85.91
2018-01-26T05:10:52.530Z,85.91
2018-01-26T05:11:52.528Z,86.19
2018-01-26T05:12:52.531Z,86.00
2018-01-26T05:13:52.583Z,85.76
2018-01-26T05:14:52.524Z,85.66
2018-01-26T05:15:52.526Z,85.66
2018-01-26T05:16:52.521Z,85.57
2018-01-26T05:17:52.522Z,85.57
2018-01-26T05:18:52.557Z,85.76
2018-01-26T05:19:52.517Z,85.47
2018-01-26T05:20:52.518Z,85.86
2018-01-26T05:21:52.515Z,86.14
2018-01-26T05:22:52.512Z,86.24
2018-01-26T05:23:52.570Z,87.28
2018-01-26T05:24:52.511Z,86.61
2018-01-26T05:25:52.514Z,86.86
2018-01-26T05:26:52.507Z,87.90
2018-01-26T05:27:52.546Z,87.62
2018-01-26T05:28:52.544Z,87.81
2018-01-26T05:29:52.507Z,88.23
2018-01-26T05:30:52.504Z,88.09
2018-01-26T05:31:52.967Z,88.09
2018-01-26T05:32:52.502Z,88.57
2018-01-26T05:33:52.688Z,89.14
2018-01-26T05:34:52.499Z,89.23
2018-01-26T05:35:52.519Z,89.71
2018-01-26T05:36:52.502Z,89.42
2018-01-26T05:37:52.495Z,89.61
2018-01-26T05:38:52.547Z,89.23
2018-01-26T05:39:52.498Z,90.09
2018-01-26T05:40:52.492Z,89.52
2018-01-26T05:41:52.488Z,89.80
2018-01-26T05:42:52.488Z,89.80
2018-01-26T05:43:52.488Z,90.09
2018-01-26T05:44:52.542Z,90.09
2018-01-26T05:45:52.484Z,89.80
2018-01-26T05:46:52.483Z,90.00
2018-01-26T05:47:52.480Z,90.09
2018-01-26T05:48:52.479Z,90.28
2018-01-26T05:49:52.570Z,90.14
2018-01-26T05:50:52.479Z,90.23
2018-01-26T05:51:52.483Z,90.52
2018-01-26T05:52:52.514Z,90.23
2018-01-26T05:53:52.473Z,90.23
2018-01-26T05:54:52.470Z,90.23
2018-01-26T05:55:52.506Z,90.23
2018-01-26T05:56:52.469Z,90.61
2018-01-26T05:57:52.468Z,90.33
2018-01-26T05:58:52.467Z,90.05
2018-01-26T05:59:52.464Z,89.95
2018-01-26T06:00:52.523Z,89.95
2018-01-26T06:01:52.458Z,90.52
2018-01-26T06:02:52.499Z,90.14
2018-01-26T06:03:52.458Z,90.42
2018-01-26T06:04:52.459Z,90.33
2018-01-26T06:05:52.509Z,90.42
2018-01-26T06:06:52.452Z,90.23
2018-01-26T06:07:52.491Z,90.61
2018-01-26T06:08:52.453Z,90.42
2018-01-26T06:09:52.452Z,90.52
2018-01-26T06:10:52.449Z,90.71
2018-01-26T06:11:52.488Z,91.47
2018-01-26T06:12:52.449Z,91.38
2018-01-26T06:13:52.440Z,91.38
2018-01-26T06:14:52.441Z,91.75
2018-01-26T06:15:52.439Z,91.56
2018-01-26T06:16:52.496Z,91.85
2018-01-26T06:17:52.476Z,91.75
2018-01-26T06:18:52.434Z,92.32
2018-01-26T06:19:52.433Z,91.94
2018-01-26T06:20:52.493Z,92.42
2018-01-26T06:21:52.426Z,92.04
2018-01-26T06:22:52.526Z,92.32
2018-01-26T06:23:52.426Z,92.23
2018-01-26T06:24:52.436Z,92.61
2018-01-26T06:25:52.424Z,92.42
2018-01-26T06:26:52.473Z,92.23
2018-01-26T06:27:52.464Z,92.61
2018-01-26T06:28:52.444Z,93.18
2018-01-26T06:29:52.414Z,92.99
2018-01-26T06:30:52.426Z,92.42
2018-01-26T06:31:52.417Z,92.61
2018-01-26T06:32:52.454Z,92.61
2018-01-26T06:33:52.410Z,93.27
2018-01-26T06:34:52.406Z,93.37
2018-01-26T06:35:52.406Z,93.18
2018-01-26T06:36:52.410Z,92.80
2018-01-26T06:37:52.462Z,93.75
2018-01-26T06:38:52.400Z,94.13
2018-01-26T06:39:53.107Z,94.42
2018-01-26T06:40:52.398Z,93.84
2018-01-26T06:41:52.398Z,93.46
2018-01-26T06:42:52.431Z,93.65
2018-01-26T06:43:52.453Z,93.65
2018-01-26T06:44:52.394Z,93.46
2018-01-26T06:45:52.390Z,92.99
2018-01-26T06:46:52.387Z,92.61
2018-01-26T06:47:52.447Z,93.56
2018-01-26T06:48:52.386Z,93.37
2018-01-26T06:49:52.384Z,93.46
2018-01-26T06:50:52.406Z,93.65
2018-01-26T06:51:52.381Z,94.32
2018-01-26T06:52:52.420Z,95.36
2018-01-26T06:53:52.377Z,94.98
2018-01-26T06:54:52.376Z,95.36
2018-01-26T06:55:52.377Z,94.79
2018-01-26T06:56:52.373Z,94.89
2018-01-26T06:57:52.749Z,95.46
2018-01-26T06:58:52.368Z,95.17
2018-01-26T06:59:52.369Z,94.70
2018-01-26T07:00:52.365Z,94.98
2018-01-26T07:01:52.363Z,95.36
2018-01-26T07:02:52.420Z,94.79
2018-01-26T07:03:52.400Z,95.27
2018-01-26T07:04:52.362Z,95.75
2018-01-26T07:05:52.356Z,95.17
2018-01-26T07:06:52.356Z,95.27
2018-01-26T07:07:52.395Z,95.84
2018-01-26T07:08:52.351Z,95.17
2018-01-26T07:09:52.348Z,95.55
2018-01-26T07:10:52.348Z,95.55
2018-01-26T07:11:52.345Z,95.75
2018-01-26T07:12:52.403Z,96.50
2018-01-26T07:13:52.383Z,95.75
2018-01-26T07:14:52.342Z,96.03
2018-01-26T07:15:52.340Z,95.75
2018-01-26T07:16:52.337Z,95.94
2018-01-26T07:17:52.337Z,95.94
2018-01-26T07:18:52.373Z,95.84
2018-01-26T07:19:52.334Z,96.50
2018-01-26T07:20:52.333Z,96.60
2018-01-26T07:21:52.331Z,96.31
2018-01-26T07:22:52.333Z,96.60
2018-01-26T07:23:53.284Z,96.41
2018-01-26T07:24:52.327Z,96.50
2018-01-26T07:25:52.325Z,95.94
2018-01-26T07:26:53.166Z,96.12
2018-01-26T07:27:52.322Z,96.03
2018-01-26T07:28:52.319Z,96.50
2018-01-26T07:29:52.356Z,96.22
2018-01-26T07:30:52.316Z,96.50
2018-01-26T07:31:52.314Z,96.69
2018-01-26T07:32:52.312Z,96.41
2018-01-26T07:33:52.309Z,95.65
2018-01-26T07:34:52.352Z,95.75
2018-01-26T07:35:52.307Z,96.79
2018-01-26T07:36:52.306Z,96.31
2018-01-26T07:37:52.306Z,96.79
2018-01-26T07:38:52.303Z,95.65
2018-01-26T07:39:52.361Z,95.94
2018-01-26T07:40:52.304Z,95.65
2018-01-26T07:41:52.312Z,95.94
2018-01-26T07:42:52.296Z,96.12
2018-01-26T07:43:52.293Z,95.75
2018-01-26T07:44:52.349Z,96.41
2018-01-26T07:45:52.293Z,97.07
2018-01-26T07:46:52.291Z,96.98
2018-01-26T07:47:52.288Z,96.60
2018-01-26T07:48:52.288Z,96.50
2018-01-26T07:49:52.324Z,96.88
2018-01-26T07:50:52.322Z,96.31
2018-01-26T07:51:52.281Z,96.03
2018-01-26T07:52:52.279Z,95.46
2018-01-26T07:53:52.281Z,95.84
2018-01-26T07:54:52.277Z,95.94
2018-01-26T07:55:52.315Z,95.27
2018-01-26T07:56:52.278Z,95.75
2018-01-26T07:57:52.273Z,95.55
2018-01-26T07:58:52.271Z,95.75
2018-01-26T07:59:52.271Z,95.55
2018-01-26T08:00:52.329Z,95.65
2018-01-26T08:01:52.265Z,95.55
2018-01-26T08:02:52.265Z,94.98
2018-01-26T08:03:52.262Z,95.84
2018-01-26T08:04:52.318Z,95.84
2018-01-26T08:05:52.260Z,95.46
2018-01-26T08:06:52.258Z,95.94
2018-01-26T08:07:52.258Z,96.50
2018-01-26T08:08:52.256Z,95.75
2018-01-26T08:09:52.322Z,96.22
2018-01-26T08:10:52.253Z,95.94
2018-01-26T08:11:52.254Z,95.55
2018-01-26T08:12:52.250Z,95.65
2018-01-26T08:13:52.247Z,96.12
2018-01-26T08:14:52.248Z,96.50
2018-01-26T08:15:52.302Z,96.03
2018-01-26T08:16:52.243Z,95.55
2018-01-26T08:17:52.240Z,95.94
2018-01-26T08:18:52.240Z,95.75
2018-01-26T08:19:53.099Z,96.12
2018-01-26T08:20:52.241Z,97.17
2018-01-26T08:21:52.274Z,96.79
2018-01-26T08:22:52.232Z,97.74
2018-01-26T08:23:52.230Z,97.83
2018-01-26T08:24:52.231Z,97.64
2018-01-26T08:25:52.290Z,97.64
2018-01-26T08:26:52.235Z,97.74
2018-01-26T08:27:52.227Z,97.36
2018-01-26T08:28:52.225Z,97.27
2018-01-26T08:29:52.281Z,96.41
2018-01-26T08:30:52.222Z,98.12
2018-01-26T08:31:52.225Z,97.92
2018-01-26T08:32:52.222Z,98.50
2018-01-26T08:33:52.221Z,97.64
2018-01-26T08:34:52.253Z,97.64
2018-01-26T08:35:52.271Z,97.64
2018-01-26T08:36:52.217Z,97.64
2018-01-26T08:37:52.212Z,97.07
2018-01-26T08:38:52.210Z,96.88
2018-01-26T08:39:52.266Z,96.79
2018-01-26T08:40:52.210Z,96.88
2018-01-26T08:41:52.207Z,96.50
2018-01-26T08:42:52.203Z,97.45
2018-01-26T08:43:52.203Z,97.27
2018-01-26T08:44:52.242Z,96.22
2018-01-26T08:45:52.202Z,97.07
2018-01-26T08:46:52.256Z,96.50
2018-01-26T08:47:52.201Z,96.88
2018-01-26T08:48:52.195Z,96.79
2018-01-26T08:49:52.235Z,97.07
2018-01-26T08:50:52.196Z,96.41
2018-01-26T08:51:52.236Z,97.92
2018-01-26T08:52:52.194Z,97.78
2018-01-26T08:53:52.192Z,97.31
2018-01-26T08:54:52.188Z,97.12
2018-01-26T08:55:52.187Z,96.45
2018-01-26T08:56:52.234Z,95.98
2018-01-26T08:57:52.185Z,96.08
2018-01-26T08:58:52.185Z,96.65
2018-01-26T08:59:52.182Z,96.84
2018-01-26T09:00:52.185Z,96.93
2018-01-26T09:01:52.245Z,96.74
2018-01-26T09:02:52.180Z,96.74
2018-01-26T09:03:52.179Z,97.78
2018-01-26T09:04:52.218Z,97.97
2018-01-26T09:05:52.177Z,97.69
2018-01-26T09:06:52.175Z,97.50
2018-01-26T09:07:52.215Z,97.60
2018-01-26T09:08:52.173Z,97.03
2018-01-26T09:09:52.170Z,96.93
2018-01-26T09:10:52.181Z,97.12
2018-01-26T09:11:52.172Z,97.69
2018-01-26T09:12:52.212Z,97.50
2018-01-26T09:13:52.171Z,98.55
2018-01-26T09:14:52.171Z,98.55
2018-01-26T09:15:52.167Z,98.07
2018-01-26T09:16:52.735Z,97.60
2018-01-26T09:17:52.202Z,98.07
2018-01-26T09:18:52.164Z,98.50
2018-01-26T09:19:52.164Z,98.31
2018-01-26T09:20:52.161Z,98.55
2018-01-26T09:21:52.160Z,97.45
2018-01-26T09:22:52.203Z,98.69
2018-01-26T09:23:52.158Z,98.50
2018-01-26T09:24:52.157Z,97.92
2018-01-26T09:25:52.156Z,98.02
2018-01-26T09:26:52.182Z,98.40
2018-01-26T09:27:52.220Z,97.83
2018-01-26T09:28:52.191Z,97.83
2018-01-26T09:29:52.154Z,97.92
2018-01-26T09:30:52.152Z,97.88
2018-01-26T09:31:52.152Z,97.83
2018-01-26T09:32:52.151Z,97.55
2018-01-26T09:33:52.190Z,97.83
2018-01-26T09:34:52.146Z,97.27
2018-01-26T09:35:52.147Z,97.45
2018-01-26T09:36:52.146Z,97.55
2018-01-26T09:37:52.145Z,97.55
2018-01-26T09:38:52.182Z,97.92
2018-01-26T09:39:52.143Z,97.92
2018-01-26T09:40:52.142Z,97.83
2018-01-26T09:41:52.137Z,97.92
2018-01-26T09:42:52.396Z,97.64
2018-01-26T09:43:52.195Z,97.74
2018-01-26T09:44:52.173Z,96.79
2018-01-26T09:45:52.139Z,97.17
2018-01-26T09:46:52.133Z,97.64
2018-01-26T09:47:52.135Z,97.64
2018-01-26T09:48:52.135Z,97.55
2018-01-26T09:49:52.173Z,96.79
2018-01-26T09:50:52.130Z,97.45
2018-01-26T09:51:52.129Z,97.64
2018-01-26T09:52:52.130Z,97.07
2018-01-26T09:53:52.128Z,96.88
2018-01-26T09:54:52.168Z,97.64
2018-01-26T09:55:52.126Z,97.45
2018-01-26T09:56:52.127Z,97.45
2018-01-26T09:57:52.120Z,97.74
2018-01-26T09:58:52.121Z,98.12
2018-01-26T09:59:52.162Z,97.74
2018-01-26T10:00:52.118Z,97.45
2018-01-26T10:01:52.116Z,97.64
2018-01-26T10:02:52.115Z,98.12
2018-01-26T10:03:52.112Z,97.36
2018-01-26T10:04:52.154Z,97.55
2018-01-26T10:05:52.110Z,97.74
2018-01-26T10:06:52.110Z,96.98
2018-01-26T10:07:52.110Z,97.22
2018-01-26T10:08:52.506Z,96.93
2018-01-26T10:09:52.164Z,96.55
2018-01-26T10:10:52.104Z,96.55
2018-01-26T10:11:52.104Z,95.98
2018-01-26T10:12:52.101Z,95.70
2018-01-26T10:13:52.100Z,96.45
2018-01-26T10:14:52.156Z,96.55
2018-01-26T10:15:52.100Z,96.45
2018-01-26T10:16:52.098Z,96.36
2018-01-26T10:17:52.096Z,95.79
2018-01-26T10:18:52.114Z,95.22
2018-01-26T10:19:52.130Z,94.84
2018-01-26T10:20:52.134Z,94.65
2018-01-26T10:21:52.090Z,94.08
2018-01-26T10:22:52.091Z,94.46
2018-01-26T10:23:52.088Z,93.94
2018-01-26T10:24:52.090Z,93.94
2018-01-26T10:25:52.126Z,93.23
2018-01-26T10:26:52.085Z,93.32
2018-01-26T10:27:52.087Z,93.84
2018-01-26T10:28:52.086Z,93.51
2018-01-26T10:29:52.083Z,93.79
2018-01-26T10:30:52.141Z,93.23
2018-01-26T10:31:52.080Z,93.60
2018-01-26T10:32:52.082Z,92.85
2018-01-26T10:33:52.120Z,93.89
2018-01-26T10:34:52.080Z,93.32
2018-01-26T10:35:52.908Z,93.60
2018-01-26T10:36:52.131Z,93.70
2018-01-26T10:37:52.076Z,93.23
2018-01-26T10:38:52.075Z,93.79
2018-01-26T10:39:52.074Z,93.79
2018-01-26T10:40:52.073Z,93.70
2018-01-26T10:41:52.144Z,93.51
2018-01-26T10:42:52.075Z,94.08
2018-01-26T10:43:52.074Z,94.65
2018-01-26T10:44:52.072Z,93.79
2018-01-26T10:45:52.069Z,94.18
2018-01-26T10:46:52.124Z,94.56
2018-01-26T10:47:52.069Z,94.27
2018-01-26T10:48:52.071Z,94.18
2018-01-26T10:49:52.142Z,93.99
2018-01-26T10:50:52.069Z,94.65
2018-01-26T10:51:52.066Z,95.03
2018-01-26T10:52:52.103Z,94.65
2018-01-26T10:53:52.067Z,93.79
2018-01-26T10:54:52.060Z,92.94
2018-01-26T10:55:52.062Z,93.99
2018-01-26T10:56:52.064Z,94.37
2018-01-26T10:57:52.118Z,93.99
2018-01-26T10:58:52.059Z,94.18
2018-01-26T10:59:52.095Z,94.18
2018-01-26T11:00:52.061Z,93.70
2018-01-26T11:01:52.053Z,93.70
2018-01-26T11:02:52.055Z,93.23
2018-01-26T11:03:52.113Z,92.85
2018-01-26T11:04:52.091Z,92.94
2018-01-26T11:05:52.055Z,92.94
2018-01-26T11:06:52.053Z,93.32
2018-01-26T11:07:52.051Z,92.66
2018-01-26T11:08:52.117Z,92.85
2018-01-26T11:09:52.050Z,93.13
2018-01-26T11:10:52.049Z,92.66
2018-01-26T11:11:52.048Z,92.94
2018-01-26T11:12:52.082Z,93.04
2018-01-26T11:13:52.044Z,93.04
2018-01-26T11:14:52.301Z,93.04
2018-01-26T11:15:52.050Z,93.23
2018-01-26T11:16:52.043Z,92.85
2018-01-26T11:17:52.100Z,93.04
2018-01-26T11:18:52.042Z,92.18
2018-01-26T11:19:52.098Z,92.94
2018-01-26T11:20:52.040Z,93.04
2018-01-26T11:21:52.037Z,93.89
2018-01-26T11:22:52.426Z,93.60
2018-01-26T11:23:52.039Z,93.89
2018-01-26T11:24:52.081Z,93.13
2018-01-26T11:25:52.036Z,93.32
2018-01-26T11:26:52.038Z,93.60
2018-01-26T11:27:52.036Z,93.99
2018-01-26T11:28:52.092Z,93.51
2018-01-26T11:29:52.035Z,94.08
2018-01-26T11:30:52.068Z,93.51
2018-01-26T11:31:52.030Z,93.60
2018-01-26T11:32:52.031Z,93.51
2018-01-26T11:33:52.070Z,93.04
2018-01-26T11:34:52.029Z,92.94
2018-01-26T11:35:52.035Z,93.04
2018-01-26T11:36:52.027Z,92.66
2018-01-26T11:37:52.027Z,93.04
2018-01-26T11:38:52.063Z,93.04
2018-01-26T11:39:52.026Z,93.60
2018-01-26T11:40:52.026Z,93.51
2018-01-26T11:41:52.657Z,92.75
2018-01-26T11:42:52.025Z,92.18
2018-01-26T11:43:52.066Z,91.99
2018-01-26T11:44:52.023Z,92.46
2018-01-26T11:45:52.020Z,92.46
2018-01-26T11:46:52.021Z,92.37
2018-01-26T11:47:52.081Z,92.46
2018-01-26T11:48:52.018Z,92.85
2018-01-26T11:49:52.018Z,92.37
2018-01-26T11:50:52.016Z,91.80
2018-01-26T11:51:52.054Z,91.71
2018-01-26T11:52:52.659Z,92.27
2018-01-26T11:53:52.060Z,92.37
2018-01-26T11:54:52.014Z,92.27
2018-01-26T11:55:52.042Z,91.99
2018-01-26T11:56:52.015Z,92.27
2018-01-26T11:57:52.010Z,92.27
2018-01-26T11:58:52.048Z,92.46
2018-01-26T11:59:52.011Z,92.27
2018-01-26T12:00:52.010Z,92.27
2018-01-26T12:01:52.017Z,92.94
2018-01-26T12:02:52.009Z,93.13
2018-01-26T12:03:52.047Z,93.60
2018-01-26T12:04:52.009Z,94.65
2018-01-26T12:05:52.005Z,95.03
2018-01-26T12:06:52.012Z,94.84
2018-01-26T12:07:52.016Z,94.56
2018-01-26T12:08:52.052Z,95.51
2018-01-26T12:09:52.005Z,95.60
2018-01-26T12:10:52.001Z,95.51
2018-01-26T12:11:52.000Z,95.89
2018-01-26T12:12:52.002Z,95.89
2018-01-26T12:13:52.059Z,96.17
2018-01-26T12:14:52.001Z,96.74
2018-01-26T12:15:52.060Z,95.60
2018-01-26T12:16:52.000Z,96.60
2018-01-26T12:17:52.008Z,96.50
2018-01-26T12:18:51.995Z,97.27
2018-01-26T12:19:52.007Z,97.55
2018-01-26T12:20:52.053Z,97.64
2018-01-26T12:21:51.993Z,97.55
2018-01-26T12:22:51.995Z,97.64
2018-01-26T12:23:51.991Z,96.69
2018-01-26T12:24:51.992Z,96.88
2018-01-26T12:25:52.028Z,97.92
2018-01-26T12:26:52.360Z,98.59
2018-01-26T12:27:51.988Z,98.40
2018-01-26T12:28:51.988Z,98.12
2018-01-26T12:29:52.033Z,97.55
2018-01-26T12:30:51.986Z,98.12
2018-01-26T12:31:51.985Z,97.83
2018-01-26T12:32:51.985Z,98.50
2018-01-26T12:33:51.981Z,98.12
2018-01-26T12:34:52.020Z,99.26
2018-01-26T12:35:51.985Z,99.26
2018-01-26T12:36:51.984Z,98.36
2018-01-26T12:37:51.981Z,99.07
2018-01-26T12:38:51.982Z,98.59
2018-01-26T12:39:52.022Z,99.30
2018-01-26T12:40:51.981Z,98.69
2018-01-26T12:41:51.980Z,97.64
2018-01-26T12:42:51.977Z,98.74
2018-01-26T12:43:52.019Z,98.59
2018-01-26T12:44:51.976Z,98.59
2018-01-26T12:45:51.977Z,99.59
2018-01-26T12:46:51.982Z,97.88
2018-01-26T12:47:51.975Z,99.50
2018-01-26T12:48:52.030Z,97.55
2018-01-26T12:49:51.970Z,96.50
2018-01-26T12:50:52.013Z,96.65
2018-01-26T12:51:51.971Z,96.60
2018-01-26T12:52:51.972Z,96.41